createdAt,value
2018-02-17T00:00:38.808Z,1014.75
2018-02-17T00:01:53.312Z,1014.75
2018-02-17T00:03:08.238Z,1014.81
2018-02-17T00:04:23.536Z,1014.86
2018-02-17T00:05:38.565Z,1014.83
2018-02-17T00:06:52.645Z,1014.83
2018-02-17T00:08:08.022Z,1014.86
2018-02-17T00:09:22.758Z,1014.82
2018-02-17T00:10:37.548Z,1014.85
2018-02-17T00:11:52.981Z,1014.81
2018-02-17T00:13:07.413Z,1014.8
2018-02-17T00:14:21.912Z,1014.79
2018-02-17T00:15:36.600Z,1014.74
2018-02-17T00:16:51.662Z,1014.73
2018-02-17T00:18:05.576Z,1014.73
2018-02-17T00:19:20.954Z,1014.68
2018-02-17T00:20:35.817Z,1014.67
2018-02-17T00:21:50.384Z,1014.6
2018-02-17T00:23:05.363Z,1014.57
2018-02-17T00:24:20.345Z,1014.48
2018-02-17T00:25:34.242Z,1014.42
2018-02-17T00:26:48.413Z,1014.42
2018-02-17T00:28:02.854Z,1014.39
2018-02-17T00:29:17.265Z,1014.42
2018-02-17T00:30:32.297Z,1014.49
2018-02-17T00:31:47.157Z,1014.5
2018-02-17T00:33:01.678Z,1014.47
2018-02-17T00:34:16.181Z,1014.49
2018-02-17T00:35:31.258Z,1014.49
2018-02-17T00:36:46.434Z,1014.53
2018-02-17T00:38:01.186Z,1014.47
2018-02-17T00:39:16.165Z,1014.5
2018-02-17T00:40:30.655Z,1014.46
2018-02-17T00:41:44.890Z,1014.43
2018-02-17T00:42:59.897Z,1014.45
2018-02-17T00:44:15.813Z,1014.45
2018-02-17T00:45:31.167Z,1014.45
2018-02-17T00:46:46.150Z,1014.54
2018-02-17T00:48:00.727Z,1014.6
2018-02-17T00:49:15.162Z,1014.61
2018-02-17T00:50:29.992Z,1014.62
2018-02-17T00:51:43.668Z,1014.56
2018-02-17T00:52:57.838Z,1014.47
2018-02-17T00:54:12.780Z,1014.5
2018-02-17T00:55:28.143Z,1014.5
2018-02-17T00:56:42.855Z,1014.44
2018-02-17T00:57:57.703Z,1014.43
2018-02-17T00:59:12.680Z,1014.39
2018-02-17T01:00:27.161Z,1014.37
2018-02-17T01:01:42.685Z,1014.32
2018-02-17T01:02:57.700Z,1014.3
2018-02-17T01:04:12.141Z,1014.27
2018-02-17T01:05:26.388Z,1014.23
2018-02-17T01:06:41.673Z,1014.21
2018-02-17T01:07:57.000Z,1014.19
2018-02-17T01:09:11.766Z,1014.18
2018-02-17T01:10:26.340Z,1014.15
2018-02-17T01:11:40.248Z,1014.1
2018-02-17T01:12:55.362Z,1014.13
2018-02-17T01:14:10.286Z,1014.08
2018-02-17T01:15:25.052Z,1014.06
2018-02-17T01:16:40.204Z,1014.02
2018-02-17T01:17:54.758Z,1014
2018-02-17T01:19:34.858Z,1014.06
2018-02-17T01:20:49.618Z,1014.1
2018-02-17T01:22:04.060Z,1014.19
2018-02-17T01:23:18.864Z,1014.13
2018-02-17T01:24:33.584Z,1014.11
2018-02-17T01:25:48.520Z,1014.17
2018-02-17T01:27:02.879Z,1014.18
2018-02-17T01:28:17.523Z,1014.13
2018-02-17T01:29:32.700Z,1014.07
2018-02-17T01:30:47.919Z,1014.06
2018-02-17T01:32:02.621Z,1014.03
2018-02-17T01:33:17.576Z,1013.98
2018-02-17T01:34:31.783Z,1013.96
2018-02-17T01:35:46.725Z,1013.9
2018-02-17T01:37:01.178Z,1013.88
2018-02-17T01:38:16.651Z,1013.83
2018-02-17T01:39:31.363Z,1013.85
2018-02-17T01:40:46.044Z,1013.82
2018-02-17T01:42:00.756Z,1013.78
2018-02-17T01:43:15.195Z,1013.78
2018-02-17T01:44:30.271Z,1013.71
2018-02-17T01:45:44.448Z,1013.63
2018-02-17T01:46:58.322Z,1013.58
2018-02-17T01:48:13.282Z,1013.6
2018-02-17T01:49:37.715Z,1013.58
2018-02-17T01:50:52.377Z,1013.6
2018-02-17T01:52:06.825Z,1013.58
2018-02-17T01:53:21.346Z,1013.58
2018-02-17T01:54:35.755Z,1013.59
2018-02-17T01:55:50.712Z,1013.56
2018-02-17T01:57:05.858Z,1013.57
2018-02-17T01:58:20.055Z,1013.48
2018-02-17T01:59:33.954Z,1013.47
2018-02-17T02:00:48.921Z,1013.36
2018-02-17T02:02:03.906Z,1013.27
2018-02-17T02:03:18.776Z,1013.23
2018-02-17T02:04:33.400Z,1013.21
2018-02-17T02:05:48.489Z,1013.19
2018-02-17T02:07:03.134Z,1013.13
2018-02-17T02:08:17.551Z,1013.07
2018-02-17T02:09:32.860Z,1013.05
2018-02-17T02:10:47.382Z,1013.06
2018-02-17T02:12:02.100Z,1013.09
2018-02-17T02:13:16.597Z,1013.08
2018-02-17T02:14:31.590Z,1013.08
2018-02-17T02:15:46.074Z,1013.13
2018-02-17T02:16:59.958Z,1013.18
2018-02-17T02:18:14.205Z,1013.16
2018-02-17T02:19:28.329Z,1013.17
2018-02-17T02:20:42.999Z,1013.18
2018-02-17T02:21:58.317Z,1013.18
2018-02-17T02:23:12.768Z,1013.16
2018-02-17T02:24:27.017Z,1013.15
2018-02-17T02:25:41.408Z,1013.12
2018-02-17T02:26:56.598Z,1013.02
2018-02-17T02:28:12.114Z,1013.05
2018-02-17T02:29:26.976Z,1013.08
2018-02-17T02:30:41.409Z,1013.14
2018-02-17T02:31:56.448Z,1013.16
2018-02-17T02:33:10.913Z,1013.16
2018-02-17T02:34:25.493Z,1013.11
2018-02-17T02:35:39.938Z,1013.11
2018-02-17T02:36:54.365Z,1013.06
2018-02-17T02:38:08.777Z,1013.06
2018-02-17T02:39:23.540Z,1013.06
2018-02-17T02:40:38.237Z,1013.16
2018-02-17T02:41:52.384Z,1013.09
2018-02-17T02:43:06.774Z,1013.12
2018-02-17T02:44:21.918Z,1013.17
2018-02-17T02:45:36.599Z,1013.19
2018-02-17T02:46:51.924Z,1013.21
2018-02-17T02:48:06.049Z,1013.25
2018-02-17T02:49:20.942Z,1013.22
2018-02-17T02:50:35.873Z,1013.18
2018-02-17T02:51:50.568Z,1013.13
2018-02-17T02:53:05.596Z,1013.03
2018-02-17T02:54:20.246Z,1013.08
2018-02-17T02:55:35.171Z,1013.06
2018-02-17T02:56:49.479Z,1013.17
2018-02-17T02:58:03.849Z,1013.2
2018-02-17T02:59:19.112Z,1013.19
2018-02-17T03:00:34.240Z,1013.21
2018-02-17T03:01:48.386Z,1013.09
2018-02-17T03:03:03.469Z,1013.09
2018-02-17T03:04:18.157Z,1013.03
2018-02-17T03:05:32.920Z,1013.04
2018-02-17T03:06:47.602Z,1012.96
2018-02-17T03:08:02.264Z,1012.93
2018-02-17T03:09:16.677Z,1012.94
2018-02-17T03:10:31.445Z,1012.87
2018-02-17T03:11:46.152Z,1012.95
2018-02-17T03:13:00.236Z,1012.89
2018-02-17T03:14:14.919Z,1012.91
2018-02-17T03:15:29.406Z,1012.82
2018-02-17T03:16:43.556Z,1012.79
2018-02-17T03:17:58.341Z,1012.81
2018-02-17T03:19:12.467Z,1012.73
2018-02-17T03:20:27.309Z,1012.77
2018-02-17T03:21:42.328Z,1012.87
2018-02-17T03:22:57.014Z,1012.87
2018-02-17T03:24:12.268Z,1012.98
2018-02-17T03:25:27.076Z,1013
2018-02-17T03:26:42.318Z,1012.91
2018-02-17T03:27:57.570Z,1012.92
2018-02-17T03:29:12.813Z,1013.02
2018-02-17T03:30:27.843Z,1012.89
2018-02-17T03:31:42.809Z,1012.88
2018-02-17T03:32:58.042Z,1012.87
2018-02-17T03:34:13.339Z,1012.85
2018-02-17T03:35:28.065Z,1012.87
2018-02-17T03:36:43.576Z,1012.85
2018-02-17T03:37:58.012Z,1012.8
2018-02-17T03:39:12.646Z,1012.78
2018-02-17T03:40:27.762Z,1012.81
2018-02-17T03:41:42.722Z,1012.75
2018-02-17T03:42:58.215Z,1012.7
2018-02-17T03:44:12.374Z,1012.67
2018-02-17T03:45:26.838Z,1012.58
2018-02-17T03:46:41.520Z,1012.52
2018-02-17T03:47:55.905Z,1012.54
2018-02-17T03:49:10.927Z,1012.5
2018-02-17T03:50:25.320Z,1012.45
2018-02-17T03:51:40.118Z,1012.49
2018-02-17T03:52:55.073Z,1012.42
2018-02-17T03:54:10.021Z,1012.37
2018-02-17T03:55:24.972Z,1012.34
2018-02-17T03:56:39.711Z,1012.29
2018-02-17T03:57:53.581Z,1012.26
2018-02-17T03:59:07.921Z,1012.18
2018-02-17T04:00:22.592Z,1012.1
2018-02-17T04:01:37.896Z,1012.19
2018-02-17T04:02:53.081Z,1012.16
2018-02-17T04:04:08.459Z,1012.14
2018-02-17T04:05:22.888Z,1012.05
2018-02-17T04:06:38.084Z,1012.04
2018-02-17T04:07:53.277Z,1012.07
2018-02-17T04:09:07.716Z,1012.03
2018-02-17T04:10:21.934Z,1012
2018-02-17T04:11:35.945Z,1012.08
2018-02-17T04:12:50.908Z,1012.08
2018-02-17T04:14:05.383Z,1012.07
2018-02-17T04:15:19.815Z,1012.09
2018-02-17T04:16:34.551Z,1012.09
2018-02-17T04:17:49.488Z,1012.02
2018-02-17T04:19:03.912Z,1012.06
2018-02-17T04:20:18.898Z,1012.09
2018-02-17T04:21:34.048Z,1012.12
2018-02-17T04:22:49.198Z,1012.11
2018-02-17T04:24:03.638Z,1012.13
2018-02-17T04:25:18.083Z,1012.08
2018-02-17T04:26:33.427Z,1012.19
2018-02-17T04:27:47.550Z,1012.14
2018-02-17T04:29:01.749Z,1012.18
2018-02-17T04:30:16.744Z,1012.13
2018-02-17T04:31:31.118Z,1012.11
2018-02-17T04:32:47.157Z,1012.12
2018-02-17T04:34:01.684Z,1012.16
2018-02-17T04:35:16.694Z,1012.12
2018-02-17T04:36:30.586Z,1012.11
2018-02-17T04:37:44.995Z,1012.07
2018-02-17T04:38:59.704Z,1012.05
2018-02-17T04:40:14.755Z,1012.01
2018-02-17T04:41:29.149Z,1011.97
2018-02-17T04:42:44.174Z,1011.96
2018-02-17T04:43:59.114Z,1011.96
2018-02-17T04:45:14.338Z,1011.89
2018-02-17T04:46:28.793Z,1011.87
2018-02-17T04:47:44.085Z,1011.91
2018-02-17T04:48:58.505Z,1011.91
2018-02-17T04:50:12.640Z,1011.94
2018-02-17T04:51:27.978Z,1011.92
2018-02-17T04:52:43.220Z,1011.93
2018-02-17T04:53:58.446Z,1011.89
2018-02-17T04:55:12.136Z,1011.88
2018-02-17T04:56:26.575Z,1011.85
2018-02-17T04:57:41.552Z,1011.87
2018-02-17T04:58:56.505Z,1011.81
2018-02-17T05:00:10.981Z,1011.79
2018-02-17T05:01:25.671Z,1011.85
2018-02-17T05:02:40.366Z,1011.85
2018-02-17T05:03:55.018Z,1011.87
2018-02-17T05:05:10.010Z,1011.92
2018-02-17T05:06:24.693Z,1011.96
2018-02-17T05:07:39.632Z,1011.88
2018-02-17T05:08:53.974Z,1011.87
2018-02-17T05:10:08.432Z,1011.87
2018-02-17T05:11:23.565Z,1011.8
2018-02-17T05:12:38.268Z,1011.84
2018-02-17T05:13:52.770Z,1011.82
2018-02-17T05:15:07.168Z,1011.77
2018-02-17T05:16:21.595Z,1011.78
2018-02-17T05:17:36.016Z,1011.82
2018-02-17T05:18:51.061Z,1011.84
2018-02-17T05:20:05.457Z,1011.69
2018-02-17T05:21:19.952Z,1011.68
2018-02-17T05:22:35.045Z,1011.66
2018-02-17T05:23:49.499Z,1011.61
2018-02-17T05:25:04.298Z,1011.62
2018-02-17T05:26:18.698Z,1011.62
2018-02-17T05:27:32.804Z,1011.53
2018-02-17T05:28:47.992Z,1011.45
2018-02-17T05:30:02.376Z,1011.41
2018-02-17T05:31:16.784Z,1011.39
2018-02-17T05:32:30.669Z,1011.31
2018-02-17T05:33:45.520Z,1011.26
2018-02-17T05:35:00.238Z,1011.16
2018-02-17T05:36:14.644Z,1011.23
2018-02-17T05:37:57.922Z,1011.17
2018-02-17T05:39:12.938Z,1011.19
2018-02-17T05:40:27.395Z,1011.12
2018-02-17T05:41:42.398Z,1011.15
2018-02-17T05:42:57.563Z,1011.07
2018-02-17T05:44:12.274Z,1011.02
2018-02-17T05:45:27.576Z,1011.01
2018-02-17T05:46:42.225Z,1010.97
2018-02-17T05:47:56.617Z,1011.03
2018-02-17T05:49:11.091Z,1010.93
2018-02-17T05:50:26.417Z,1010.9
2018-02-17T05:51:40.831Z,1010.98
2018-02-17T05:52:55.498Z,1010.98
2018-02-17T05:54:10.198Z,1010.93
2018-02-17T05:55:24.975Z,1010.98
2018-02-17T05:56:39.918Z,1010.99
2018-02-17T05:57:55.139Z,1010.97
2018-02-17T05:59:09.549Z,1011
2018-02-17T06:00:24.090Z,1011.04
2018-02-17T06:01:39.035Z,1011.01
2018-02-17T06:02:53.338Z,1011.01
2018-02-17T06:04:08.459Z,1011.05
2018-02-17T06:05:23.106Z,1011.05
2018-02-17T06:06:37.523Z,1011
2018-02-17T06:07:52.205Z,1011.02
2018-02-17T06:09:06.728Z,1011.07
2018-02-17T06:10:22.431Z,1011.05
2018-02-17T06:11:36.326Z,1011.05
2018-02-17T06:12:50.839Z,1011.04
2018-02-17T06:14:05.335Z,1011.02
2018-02-17T06:15:19.640Z,1010.94
2018-02-17T06:16:34.111Z,1010.99
2018-02-17T06:17:48.663Z,1011.02
2018-02-17T06:19:03.370Z,1011.07
2018-02-17T06:20:17.797Z,1011.02
2018-02-17T06:21:32.057Z,1010.99
2018-02-17T06:22:47.180Z,1010.89
2018-02-17T06:24:01.923Z,1010.94
2018-02-17T06:25:16.455Z,1010.9
2018-02-17T06:26:30.884Z,1010.88
2018-02-17T06:27:45.345Z,1010.86
2018-02-17T06:29:00.442Z,1010.87
2018-02-17T06:30:15.143Z,1010.88
2018-02-17T06:31:29.612Z,1010.73
2018-02-17T06:32:44.566Z,1010.76
2018-02-17T06:33:58.817Z,1010.79
2018-02-17T06:35:13.644Z,1010.77
2018-02-17T06:36:27.813Z,1010.75
2018-02-17T06:37:42.600Z,1010.78
2018-02-17T06:38:57.291Z,1010.76
2018-02-17T06:40:11.507Z,1010.65
2018-02-17T06:41:26.176Z,1010.56
2018-02-17T06:42:40.900Z,1010.6
2018-02-17T06:43:55.594Z,1010.52
2018-02-17T06:45:10.273Z,1010.54
2018-02-17T06:46:25.399Z,1010.5
2018-02-17T06:47:40.620Z,1010.44
2018-02-17T06:48:55.034Z,1010.4
2018-02-17T06:50:10.017Z,1010.35
2018-02-17T06:51:24.733Z,1010.27
2018-02-17T06:52:39.418Z,1010.2
2018-02-17T06:53:54.144Z,1010.18
2018-02-17T06:55:08.878Z,1010.13
2018-02-17T06:56:22.774Z,1010.15
2018-02-17T06:57:37.672Z,1010.11
2018-02-17T06:58:51.846Z,1010.2
2018-02-17T07:00:26.076Z,1010.15
2018-02-17T07:01:40.545Z,1010.11
2018-02-17T07:02:55.289Z,1010.07
2018-02-17T07:04:10.026Z,1010.05
2018-02-17T07:05:25.009Z,1010.07
2018-02-17T07:06:40.259Z,1010.04
2018-02-17T07:07:54.437Z,1010.07
2018-02-17T07:09:08.877Z,1010.06
2018-02-17T07:10:23.908Z,1010.06
2018-02-17T07:11:38.854Z,1010.05
2018-02-17T07:12:53.100Z,1010.09
2018-02-17T07:14:07.553Z,1010.1
2018-02-17T07:15:21.442Z,1010.07
2018-02-17T07:16:36.398Z,1010.04
2018-02-17T07:17:51.663Z,1010.07
2018-02-17T07:19:06.384Z,1010.12
2018-02-17T07:20:20.894Z,1010.11
2018-02-17T07:21:35.380Z,1010.19
2018-02-17T07:22:50.211Z,1010.16
2018-02-17T07:24:05.488Z,1010.18
2018-02-17T07:25:20.480Z,1010.23
2018-02-17T07:26:34.950Z,1010.14
2018-02-17T07:27:50.187Z,1010.12
2018-02-17T07:29:05.408Z,1010.13
2018-02-17T07:30:20.451Z,1010.15
2018-02-17T07:31:34.955Z,1010.12
2018-02-17T07:32:49.706Z,1010.18
2018-02-17T07:34:04.640Z,1010.21
2018-02-17T07:35:19.382Z,1010.18
2018-02-17T07:36:34.384Z,1010.23
2018-02-17T07:37:49.780Z,1010.21
2018-02-17T07:39:04.008Z,1010.15
2018-02-17T07:40:18.119Z,1010.19
2018-02-17T07:41:32.785Z,1010.19
2018-02-17T07:42:48.441Z,1010.2
2018-02-17T07:44:03.637Z,1010.2
2018-02-17T07:45:18.339Z,1010.23
2018-02-17T07:46:33.024Z,1010.28
2018-02-17T07:47:48.289Z,1010.31
2018-02-17T07:49:03.745Z,1010.29
2018-02-17T07:50:18.443Z,1010.33
2018-02-17T07:51:33.546Z,1010.33
2018-02-17T07:52:49.093Z,1010.31
2018-02-17T07:54:02.689Z,1010.33
2018-02-17T07:55:17.509Z,1010.33
2018-02-17T07:56:32.459Z,1010.26
2018-02-17T07:57:47.562Z,1010.27
2018-02-17T07:59:02.009Z,1010.26
2018-02-17T08:00:16.508Z,1010.26
2018-02-17T08:01:31.961Z,1010.23
2018-02-17T08:02:46.128Z,1010.28
2018-02-17T08:04:01.237Z,1010.3
2018-02-17T08:05:16.505Z,1010.29
2018-02-17T08:06:30.911Z,1010.25
2018-02-17T08:07:46.458Z,1010.25
2018-02-17T08:09:00.964Z,1010.27
2018-02-17T08:10:14.867Z,1010.29
2018-02-17T08:11:29.906Z,1010.28
2018-02-17T08:12:44.863Z,1010.28
2018-02-17T08:13:59.618Z,1010.29
2018-02-17T08:15:14.562Z,1010.24
2018-02-17T08:16:28.534Z,1010.26
2018-02-17T08:17:42.377Z,1010.21
2018-02-17T08:18:56.325Z,1010.22
2018-02-17T08:20:11.594Z,1010.22
2018-02-17T08:21:25.983Z,1010.24
2018-02-17T08:22:40.692Z,1010.22
2018-02-17T08:23:55.529Z,1010.2
2018-02-17T08:25:09.732Z,1010.19
2018-02-17T08:26:24.516Z,1010.17
2018-02-17T08:27:39.203Z,1010.15
2018-02-17T08:28:54.071Z,1010.17
2018-02-17T08:30:08.783Z,1010.19
2018-02-17T08:31:23.846Z,1010.12
2018-02-17T08:32:39.185Z,1010.13
2018-02-17T08:33:53.996Z,1010.1
2018-02-17T08:35:09.047Z,1010.08
2018-02-17T08:36:23.826Z,1009.97
2018-02-17T08:37:38.848Z,1010.02
2018-02-17T08:38:53.679Z,1009.96
2018-02-17T08:40:08.183Z,1010
2018-02-17T08:41:22.999Z,1009.97
2018-02-17T08:42:37.547Z,1009.98
2018-02-17T08:43:52.482Z,1009.95
2018-02-17T08:45:07.495Z,1009.9
2018-02-17T08:46:22.277Z,1009.9
2018-02-17T08:47:37.282Z,1009.88
2018-02-17T08:48:51.812Z,1009.88
2018-02-17T08:50:06.848Z,1009.86
2018-02-17T08:51:21.694Z,1009.79
2018-02-17T08:52:36.388Z,1009.8
2018-02-17T08:53:51.301Z,1009.84
2018-02-17T08:55:05.707Z,1009.79
2018-02-17T08:56:19.910Z,1009.77
2018-02-17T08:57:34.919Z,1009.77
2018-02-17T08:58:49.943Z,1009.7
2018-02-17T09:00:04.679Z,1009.77
2018-02-17T09:01:19.169Z,1009.74
2018-02-17T09:02:34.304Z,1009.75
2018-02-17T09:03:48.961Z,1009.61
2018-02-17T09:05:03.808Z,1009.73
2018-02-17T09:06:18.557Z,1009.7
2018-02-17T09:07:33.619Z,1009.82
2018-02-17T09:08:49.314Z,1009.82
2018-02-17T09:10:04.242Z,1009.67
2018-02-17T09:11:18.744Z,1009.68
2018-02-17T09:12:32.996Z,1009.72
2018-02-17T09:13:47.468Z,1009.67
2018-02-17T09:15:02.719Z,1009.66
2018-02-17T09:16:17.762Z,1009.7
2018-02-17T09:17:32.550Z,1009.64
2018-02-17T09:18:47.017Z,1009.7
2018-02-17T09:20:02.040Z,1009.65
2018-02-17T09:21:16.770Z,1009.59
2018-02-17T09:22:31.648Z,1009.61
2018-02-17T09:23:46.397Z,1009.61
2018-02-17T09:25:01.159Z,1009.62
2018-02-17T09:26:15.960Z,1009.61
2018-02-17T09:27:30.710Z,1009.6
2018-02-17T09:28:46.328Z,1009.63
2018-02-17T09:30:01.163Z,1009.55
2018-02-17T09:31:15.936Z,1009.55
2018-02-17T09:32:30.537Z,1009.6
2018-02-17T09:33:45.349Z,1009.55
2018-02-17T09:35:00.490Z,1009.56
2018-02-17T09:36:14.984Z,1009.58
2018-02-17T09:37:29.315Z,1009.61
2018-02-17T09:38:44.109Z,1009.57
2018-02-17T09:39:58.627Z,1009.54
2018-02-17T09:41:13.216Z,1009.71
2018-02-17T09:42:28.073Z,1009.59
2018-02-17T09:43:42.820Z,1009.57
2018-02-17T09:44:57.633Z,1009.53
2018-02-17T09:46:12.148Z,1009.62
2018-02-17T09:47:27.267Z,1009.67
2018-02-17T09:48:41.844Z,1009.67
2018-02-17T09:49:56.332Z,1009.68
2018-02-17T09:51:10.981Z,1009.66
2018-02-17T09:52:25.796Z,1009.63
2018-02-17T09:53:40.839Z,1009.71
2018-02-17T09:54:55.663Z,1009.64
2018-02-17T09:56:09.644Z,1009.59
2018-02-17T09:57:24.374Z,1009.66
2018-02-17T09:58:39.356Z,1009.68
2018-02-17T09:59:54.793Z,1009.63
2018-02-17T10:01:08.955Z,1009.64
2018-02-17T10:02:22.915Z,1009.69
2018-02-17T10:03:37.179Z,1009.63
2018-02-17T10:04:52.430Z,1009.68
2018-02-17T10:06:06.870Z,1009.7
2018-02-17T10:07:21.406Z,1009.7
2018-02-17T10:08:36.489Z,1009.73
2018-02-17T10:09:51.206Z,1009.67
2018-02-17T10:11:05.439Z,1009.75
2018-02-17T10:12:20.655Z,1009.75
2018-02-17T10:13:35.159Z,1009.71
2018-02-17T10:14:50.183Z,1009.7
2018-02-17T10:16:04.745Z,1009.65
2018-02-17T10:17:19.352Z,1009.63
2018-02-17T10:18:34.478Z,1009.62
2018-02-17T10:19:49.489Z,1009.65
2018-02-17T10:21:04.599Z,1009.72
2018-02-17T10:22:19.120Z,1009.71
2018-02-17T10:23:33.856Z,1009.69
2018-02-17T10:24:48.915Z,1009.73
2018-02-17T10:26:03.677Z,1009.76
2018-02-17T10:27:18.319Z,1009.77
2018-02-17T10:28:33.701Z,1009.79
2018-02-17T10:29:48.005Z,1009.74
2018-02-17T10:31:03.060Z,1009.76
2018-02-17T10:32:17.330Z,1009.72
2018-02-17T10:33:31.889Z,1009.8
2018-02-17T10:34:47.168Z,1009.7
2018-02-17T10:36:02.009Z,1009.79
2018-02-17T10:37:17.306Z,1009.75
2018-02-17T10:38:32.142Z,1009.76
2018-02-17T10:39:47.256Z,1009.72
2018-02-17T10:41:01.852Z,1009.76
2018-02-17T10:42:16.749Z,1009.72
2018-02-17T10:43:32.054Z,1009.71
2018-02-17T10:44:47.179Z,1009.69
2018-02-17T10:46:02.307Z,1009.67
2018-02-17T10:47:17.292Z,1009.71
2018-02-17T10:48:31.844Z,1009.73
2018-02-17T10:49:47.216Z,1009.66
2018-02-17T10:51:02.345Z,1009.62
2018-02-17T10:52:17.256Z,1009.58
2018-02-17T10:53:32.639Z,1009.62
2018-02-17T10:54:47.250Z,1009.64
2018-02-17T10:56:02.147Z,1009.57
2018-02-17T10:57:16.817Z,1009.57
2018-02-17T10:58:31.589Z,1009.51
2018-02-17T10:59:45.564Z,1009.53
2018-02-17T11:01:00.366Z,1009.63
2018-02-17T11:02:15.156Z,1009.61
2018-02-17T11:03:43.249Z,1009.66
2018-02-17T11:04:58.229Z,1009.66
2018-02-17T11:06:12.924Z,1009.58
2018-02-17T11:07:26.993Z,1009.55
2018-02-17T11:08:41.760Z,1009.53
2018-02-17T11:09:56.402Z,1009.54
2018-02-17T11:11:10.675Z,1009.52
2018-02-17T11:12:25.750Z,1009.54
2018-02-17T11:13:40.609Z,1009.5
2018-02-17T11:14:55.396Z,1009.44
2018-02-17T11:16:10.223Z,1009.46
2018-02-17T11:17:25.360Z,1009.44
2018-02-17T11:18:40.644Z,1009.45
2018-02-17T11:19:55.050Z,1009.35
2018-02-17T11:21:09.556Z,1009.41
2018-02-17T11:22:24.304Z,1009.41
2018-02-17T11:23:39.362Z,1009.4
2018-02-17T11:24:53.748Z,1009.4
2018-02-17T11:26:08.799Z,1009.36
2018-02-17T11:27:23.827Z,1009.31
2018-02-17T11:28:37.756Z,1009.32
2018-02-17T11:29:52.698Z,1009.34
2018-02-17T11:31:07.868Z,1009.3
2018-02-17T11:32:22.233Z,1009.31
2018-02-17T11:33:37.006Z,1009.35
2018-02-17T11:34:51.705Z,1009.28
2018-02-17T11:36:06.945Z,1009.26
2018-02-17T11:37:21.698Z,1009.24
2018-02-17T11:38:36.572Z,1009.27
2018-02-17T11:39:50.805Z,1009.3
2018-02-17T11:41:05.816Z,1009.26
2018-02-17T11:42:20.829Z,1009.24
2018-02-17T11:43:35.355Z,1009.29
2018-02-17T11:44:49.855Z,1009.29
2018-02-17T11:46:04.932Z,1009.33
2018-02-17T11:47:19.644Z,1009.33
2018-02-17T11:48:33.974Z,1009.34
2018-02-17T11:49:49.086Z,1009.35
2018-02-17T11:51:04.064Z,1009.39
2018-02-17T11:52:19.651Z,1009.35
2018-02-17T11:53:34.790Z,1009.37
2018-02-17T11:54:49.668Z,1009.38
2018-02-17T11:56:03.633Z,1009.48
2018-02-17T11:57:18.343Z,1009.44
2018-02-17T11:58:33.707Z,1009.46
2018-02-17T11:59:48.575Z,1009.38
2018-02-17T12:01:03.207Z,1009.44
2018-02-17T12:02:17.567Z,1009.46
2018-02-17T12:03:32.276Z,1009.42
2018-02-17T12:04:46.744Z,1009.43
2018-02-17T12:06:01.404Z,1009.43
2018-02-17T12:07:15.038Z,1009.42
2018-02-17T12:08:29.972Z,1009.41
2018-02-17T12:09:44.492Z,1009.43
2018-02-17T12:10:58.584Z,1009.39
2018-02-17T12:12:13.343Z,1009.36
2018-02-17T12:13:27.352Z,1009.29
2018-02-17T12:14:41.642Z,1009.28
2018-02-17T12:15:56.135Z,1009.33
2018-02-17T12:17:10.364Z,1009.33
2018-02-17T12:18:25.571Z,1009.37
2018-02-17T12:19:39.904Z,1009.34
2018-02-17T12:20:54.734Z,1009.3
2018-02-17T12:22:10.004Z,1009.33
2018-02-17T12:23:24.004Z,1009.32
2018-02-17T12:24:39.071Z,1009.29
2018-02-17T12:25:53.552Z,1009.3
2018-02-17T12:27:08.745Z,1009.33
2018-02-17T12:28:23.314Z,1009.28
2018-02-17T12:29:37.734Z,1009.27
2018-02-17T12:30:51.706Z,1009.29
2018-02-17T12:32:06.280Z,1009.26
2018-02-17T12:33:21.673Z,1009.26
2018-02-17T12:34:36.057Z,1009.23
2018-02-17T12:35:51.248Z,1009.23
2018-02-17T12:37:05.638Z,1009.24
2018-02-17T12:38:20.141Z,1009.24
2018-02-17T12:39:35.111Z,1009.21
2018-02-17T12:41:33.331Z,1009.18
2018-02-17T12:42:48.109Z,1009.2
2018-02-17T12:44:03.157Z,1009.3
2018-02-17T12:45:17.876Z,1009.3
2018-02-17T12:46:32.376Z,1009.28
2018-02-17T12:47:47.150Z,1009.27
2018-02-17T12:49:02.204Z,1009.21
2018-02-17T12:50:16.505Z,1009.22
2018-02-17T12:51:30.930Z,1009.16
2018-02-17T12:52:44.873Z,1009.14
2018-02-17T12:54:00.013Z,1009.23
2018-02-17T12:55:15.344Z,1009.2
2018-02-17T12:56:30.641Z,1009.14
2018-02-17T12:57:45.124Z,1009.15
2018-02-17T12:58:59.605Z,1009.1
2018-02-17T13:00:14.221Z,1009.06
2018-02-17T13:01:29.354Z,1009.07
2018-02-17T13:02:44.139Z,1009.06
2018-02-17T13:03:58.628Z,1009.09
2018-02-17T13:05:13.320Z,1009.1
2018-02-17T13:06:28.647Z,1009.11
2018-02-17T13:07:43.770Z,1009.13
2018-02-17T13:08:58.787Z,1009.14
2018-02-17T13:10:13.504Z,1009.2
2018-02-17T13:11:28.583Z,1009.19
2018-02-17T13:12:43.885Z,1009.19
2018-02-17T13:14:00.519Z,1009.15
2018-02-17T13:15:15.573Z,1009.13
2018-02-17T13:16:30.725Z,1009.16
2018-02-17T13:17:45.307Z,1009.14
2018-02-17T13:18:59.941Z,1009.13
2018-02-17T13:20:25.547Z,1009.13
2018-02-17T13:21:40.574Z,1009.14
2018-02-17T13:22:55.089Z,1009.15
2018-02-17T13:24:09.595Z,1009.16
2018-02-17T13:25:24.285Z,1009.19
2018-02-17T13:26:39.374Z,1009.2
2018-02-17T13:27:54.198Z,1009.2
2018-02-17T13:29:09.074Z,1009.21
2018-02-17T13:30:23.772Z,1009.17
2018-02-17T13:31:38.601Z,1009.19
2018-02-17T13:32:53.971Z,1009.23
2018-02-17T13:34:09.052Z,1009.2
2018-02-17T13:35:23.561Z,1009.2
2018-02-17T13:36:39.013Z,1009.21
2018-02-17T13:37:53.664Z,1009.22
2018-02-17T13:39:09.082Z,1009.28
2018-02-17T13:40:24.076Z,1009.29
2018-02-17T13:41:38.946Z,1009.31
2018-02-17T13:42:53.208Z,1009.35
2018-02-17T13:44:07.459Z,1009.42
2018-02-17T13:45:21.613Z,1009.36
2018-02-17T13:46:56.688Z,1009.39
2018-02-17T13:48:11.240Z,1009.27
2018-02-17T13:49:26.380Z,1009.21
2018-02-17T13:50:41.065Z,1009.29
2018-02-17T13:51:55.537Z,1009.27
2018-02-17T13:53:10.654Z,1009.29
2018-02-17T13:54:25.372Z,1009.25
2018-02-17T13:55:39.564Z,1009.28
2018-02-17T13:56:54.250Z,1009.25
2018-02-17T13:58:09.085Z,1009.27
2018-02-17T13:59:24.163Z,1009.29
2018-02-17T14:00:39.211Z,1009.26
2018-02-17T14:01:54.228Z,1009.35
2018-02-17T14:03:08.988Z,1009.38
2018-02-17T14:04:23.541Z,1009.35
2018-02-17T14:05:38.857Z,1009.4
2018-02-17T14:06:53.792Z,1009.48
2018-02-17T14:08:07.761Z,1009.41
2018-02-17T14:09:22.046Z,1009.44
2018-02-17T14:10:36.842Z,1009.36
2018-02-17T14:11:51.927Z,1009.35
2018-02-17T14:13:06.469Z,1009.36
2018-02-17T14:14:20.783Z,1009.34
2018-02-17T14:15:35.628Z,1009.46
2018-02-17T14:16:50.394Z,1009.43
2018-02-17T14:18:05.140Z,1009.52
2018-02-17T14:19:30.186Z,1009.49
2018-02-17T14:20:44.798Z,1009.47
2018-02-17T14:21:59.668Z,1009.5
2018-02-17T14:23:14.199Z,1009.56
2018-02-17T14:24:28.833Z,1009.51
2018-02-17T14:25:43.943Z,1009.66
2018-02-17T14:26:59.063Z,1009.56
2018-02-17T14:28:14.220Z,1009.48
2018-02-17T14:29:28.767Z,1009.58
2018-02-17T14:30:43.479Z,1009.6
2018-02-17T14:31:58.960Z,1009.75
2018-02-17T14:33:13.416Z,1009.57
2018-02-17T14:34:28.129Z,1009.63
2018-02-17T14:35:43.385Z,1009.68
2018-02-17T14:36:58.396Z,1009.75
2018-02-17T14:38:13.418Z,1009.69
2018-02-17T14:39:28.776Z,1009.75
2018-02-17T14:40:43.309Z,1009.68
2018-02-17T14:41:58.091Z,1009.69
2018-02-17T14:43:12.495Z,1009.73
2018-02-17T14:44:26.960Z,1009.73
2018-02-17T14:45:41.769Z,1009.67
2018-02-17T14:46:56.861Z,1009.66
2018-02-17T14:48:11.094Z,1009.59
2018-02-17T14:49:25.581Z,1009.59
2018-02-17T14:50:40.158Z,1009.66
2018-02-17T14:52:05.728Z,1009.65
2018-02-17T14:53:20.838Z,1009.69
2018-02-17T14:54:35.820Z,1009.67
2018-02-17T14:55:50.688Z,1009.68
2018-02-17T14:57:05.225Z,1009.64
2018-02-17T14:58:20.507Z,1009.64
2018-02-17T14:59:35.817Z,1009.76
2018-02-17T15:00:51.275Z,1009.8
2018-02-17T15:02:06.409Z,1009.96
2018-02-17T15:03:20.631Z,1009.82
2018-02-17T15:04:34.641Z,1009.86
2018-02-17T15:05:49.266Z,1009.82
2018-02-17T15:07:03.251Z,1009.8
2018-02-17T15:08:18.015Z,1009.81
2018-02-17T15:09:32.351Z,1009.87
2018-02-17T15:10:47.222Z,1009.81